sensor_id;sensor_type;location;lat;lon;timestamp;pressure;altitude;pressure_sealevel;temperature;humidity
2339;BME280;1180;51.438;6.978;2023-04-07T00:01:21;100036.53;;;11.07;100.00
2339;BME280;1180;51.438;6.978;2023-04-07T00:03:46;100034.66;;;11.09;100.00
2339;BME280;1180;51.438;6.978;2023-04-07T00:06:12;100038.88;;;11.10;100.00
2339;BME280;1180;51.438;6.978;2023-04-07T00:08:38;100036.53;;;11.07;100.00
2339;BME280;1180;51.438;6.978;2023-04-07T00:11:03;100038.56;;;11.02;100.00
2339;BME280;1180;51.438;6.978;2023-04-07T00:13:29;100040.81;;;11.07;100.00
2339;BME280;1180;51.438;6.978;2023-04-07T00:15:54;100040.94;;;11.05;100.00
2339;BME280;1180;51.438;6.978;2023-04-07T00:18:20;100043.38;;;11.07;100.00
2339;BME280;1180;51.438;6.978;2023-04-07T00:20:45;100041.38;;;11.12;100.00
2339;BME280;1180;51.438;6.978;2023-04-07T00:23:11;100043.81;;;11.13;100.00
2339;BME280;1180;51.438;6.978;2023-04-07T00:25:36;100039.81;;;11.09;100.00
2339;BME280;1180;51.438;6.978;2023-04-07T00:28:02;100037.66;;;11.16;100.00
2339;BME280;1180;51.438;6.978;2023-04-07T00:30:27;100052.88;;;11.19;100.00
2339;BME280;1180;51.438;6.978;2023-04-07T00:32:53;100046.50;;;11.12;100.00
2339;BME280;1180;51.438;6.978;2023-04-07T00:35:19;100037.88;;;11.13;100.00
2339;BME280;1180;51.438;6.978;2023-04-07T00:37:45;100029.34;;;11.12;100.00
2339;BME280;1180;51.438;6.978;2023-04-07T00:40:10;100038.59;;;11.15;100.00
2339;BME280;1180;51.438;6.978;2023-04-07T00:42:36;100032.53;;;11.16;100.00
2339;BME280;1180;51.438;6.978;2023-04-07T00:45:02;100034.91;;;11.19;100.00
2339;BME280;1180;51.438;6.978;2023-04-07T00:47:28;100031.63;;;11.17;100.00
2339;BME280;1180;51.438;6.978;2023-04-07T00:49:53;100030.06;;;11.15;100.00
2339;BME280;1180;51.438;6.978;2023-04-07T00:52:19;100024.91;;;11.15;100.00
2339;BME280;1180;51.438;6.978;2023-04-07T00:54:53;100031.69;;;11.16;100.00
2339;BME280;1180;51.438;6.978;2023-04-07T00:57:18;100032.22;;;11.21;100.00
2339;BME280;1180;51.438;6.978;2023-04-07T00:59:44;100026.16;;;11.22;100.00
2339;BME280;1180;51.438;6.978;2023-04-07T01:02:16;100026.16;;;11.22;100.00
2339;BME280;1180;51.438;6.978;2023-04-07T01:04:48;100023.69;;;11.20;100.00
2339;BME280;1180;51.438;6.978;2023-04-07T01:07:26;100019.56;;;11.18;100.00
2339;BME280;1180;51.438;6.978;2023-04-07T01:09:57;100013.44;;;11.20;100.00
2339;BME280;1180;51.438;6.978;2023-04-07T01:13:00;100016.09;;;11.19;100.00
2339;BME280;1180;51.438;6.978;2023-04-07T01:15:29;100018.34;;;11.23;100.00
2339;BME280;1180;51.438;6.978;2023-04-07T01:18:09;100026.16;;;11.22;100.00
2339;BME280;1180;51.438;6.978;2023-04-07T01:20:37;100023.22;;;11.28;100.00
2339;BME280;1180;51.438;6.978;2023-04-07T01:23:05;100026.16;;;11.22;100.00
2339;BME280;1180;51.438;6.978;2023-04-07T01:25:52;100023.06;;;11.17;100.00
2339;BME280;1180;51.438;6.978;2023-04-07T01:28:45;100021.44;;;11.16;100.00
2339;BME280;1180;51.438;6.978;2023-04-07T01:31:15;100024.72;;;11.18;100.00
2339;BME280;1180;51.438;6.978;2023-04-07T01:33:44;100019.78;;;11.15;100.00
2339;BME280;1180;51.438;6.978;2023-04-07T01:36:11;100016.72;;;11.22;100.00
2339;BME280;1180;51.438;6.978;2023-04-07T01:38:37;100019.09;;;11.25;100.00
2339;BME280;1180;51.438;6.978;2023-04-07T01:41:05;100024.13;;;11.27;100.00
2339;BME280;1180;51.438;6.978;2023-04-07T01:43:31;100024.22;;;11.25;100.00
2339;BME280;1180;51.438;6.978;2023-04-07T01:45:58;100025.13;;;11.24;100.00
2339;BME280;1180;51.438;6.978;2023-04-07T01:48:25;100019.16;;;11.24;100.00
2339;BME280;1180;51.438;6.978;2023-04-07T01:50:53;100025.44;;;11.33;100.00
2339;BME280;1180;51.438;6.978;2023-04-07T01:53:20;100022.38;;;11.27;100.00
2339;BME280;1180;51.438;6.978;2023-04-07T01:55:45;100018.78;;;11.30;100.00
2339;BME280;1180;51.438;6.978;2023-04-07T01:58:11;100016.22;;;11.30;100.00
2339;BME280;1180;51.438;6.978;2023-04-07T02:00:36;100018.78;;;11.30;100.00
2339;BME280;1180;51.438;6.978;2023-04-07T02:03:08;100012.81;;;11.30;100.00
2339;BME280;1180;51.438;6.978;2023-04-07T02:05:37;100018.47;;;11.35;100.00
2339;BME280;1180;51.438;6.978;2023-04-07T02:08:05;100016.31;;;11.29;100.00
2339;BME280;1180;51.438;6.978;2023-04-07T02:10:36;100020.09;;;11.36;100.00
2339;BME280;1180;51.438;6.978;2023-04-07T02:13:04;100019.59;;;11.44;100.00
2339;BME280;1180;51.438;6.978;2023-04-07T02:15:31;100012.19;;;11.39;100.00
2339;BME280;1180;51.438;6.978;2023-04-07T02:17:59;100019.09;;;11.38;100.00
2339;BME280;1180;51.438;6.978;2023-04-07T02:20:25;100019.19;;;11.37;100.00
2339;BME280;1180;51.438;6.978;2023-04-07T02:22:52;100016.72;;;11.35;100.00
2339;BME280;1180;51.438;6.978;2023-04-07T02:25:30;100019.31;;;11.35;100.00
2339;BME280;1180;51.438;6.978;2023-04-07T02:27:57;100026.59;;;11.29;100.00
2339;BME280;1180;51.438;6.978;2023-04-07T02:30:24;100018.38;;;11.36;100.00
2339;BME280;1180;51.438;6.978;2023-04-07T02:32:50;100022.78;;;11.34;100.00
2339;BME280;1180;51.438;6.978;2023-04-07T02:35:15;100018.97;;;11.40;100.00
2339;BME280;1180;51.438;6.978;2023-04-07T02:37:41;100026.69;;;11.40;100.00
2339;BME280;1180;51.438;6.978;2023-04-07T02:40:07;100022.25;;;11.42;100.00
2339;BME280;1180;51.438;6.978;2023-04-07T02:42:33;100025.75;;;11.41;100.00
2339;BME280;1180;51.438;6.978;2023-04-07T02:44:58;100022.06;;;11.32;100.00
2339;BME280;1180;51.438;6.978;2023-04-07T02:47:25;100025.38;;;11.34;100.00
2339;BME280;1180;51.438;6.978;2023-04-07T02:49:50;100027.41;;;11.42;100.00
2339;BME280;1180;51.438;6.978;2023-04-07T02:52:16;100029.97;;;11.42;100.00
2339;BME280;1180;51.438;6.978;2023-04-07T02:54:42;100025.06;;;11.52;100.00
2339;BME280;1180;51.438;6.978;2023-04-07T02:57:08;100031.94;;;11.51;100.00
2339;BME280;1180;51.438;6.978;2023-04-07T02:59:34;100035.03;;;11.44;100.00
2339;BME280;1180;51.438;6.978;2023-04-07T03:01:59;100033.28;;;11.31;100.00
2339;BME280;1180;51.438;6.978;2023-04-07T03:04:25;100036.16;;;11.39;100.00
2339;BME280;1180;51.438;6.978;2023-04-07T03:06:50;100031.94;;;11.38;100.00
2339;BME280;1180;51.438;6.978;2023-04-07T03:09:16;100030.00;;;11.29;100.00
2339;BME280;1180;51.438;6.978;2023-04-07T03:11:41;100040.56;;;11.37;100.00
2339;BME280;1180;51.438;6.978;2023-04-07T03:14:07;100037.16;;;11.24;100.00
2339;BME280;1180;51.438;6.978;2023-04-07T03:16:33;100031.09;;;11.25;100.00
2339;BME280;1180;51.438;6.978;2023-04-07T03:18:58;100035.00;;;11.31;100.00
2339;BME280;1180;51.438;6.978;2023-04-07T03:21:24;100032.56;;;11.29;100.00
2339;BME280;1180;51.438;6.978;2023-04-07T03:23:50;100037.06;;;11.38;100.00
2339;BME280;1180;51.438;6.978;2023-04-07T03:26:16;100038.59;;;11.41;100.00
2339;BME280;1180;51.438;6.978;2023-04-07T03:28:42;100028.53;;;11.51;100.00
2339;BME280;1180;51.438;6.978;2023-04-07T03:31:07;100038.81;;;11.38;100.00
2339;BME280;1180;51.438;6.978;2023-04-07T03:33:34;100035.44;;;11.37;100.00
2339;BME280;1180;51.438;6.978;2023-04-07T03:36:00;100036.75;;;11.43;100.00
2339;BME280;1180;51.438;6.978;2023-04-07T03:38:25;100038.00;;;11.37;100.00
2339;BME280;1180;51.438;6.978;2023-04-07T03:40:51;100039.28;;;11.04;100.00
2339;BME280;1180;51.438;6.978;2023-04-07T03:43:16;100033.50;;;11.01;100.00
2339;BME280;1180;51.438;6.978;2023-04-07T03:45:42;100036.72;;;11.04;100.00
2339;BME280;1180;51.438;6.978;2023-04-07T03:48:07;100037.44;;;11.06;100.00
2339;BME280;1180;51.438;6.978;2023-04-07T03:50:37;100046.31;;;11.28;100.00
2339;BME280;1180;51.438;6.978;2023-04-07T03:53:02;100040.94;;;11.05;100.00
2339;BME280;1180;51.438;6.978;2023-04-07T03:55:28;100036.00;;;11.02;100.00
2339;BME280;1180;51.438;6.978;2023-04-07T03:57:54;100042.41;;;11.22;100.00
2339;BME280;1180;51.438;6.978;2023-04-07T04:00:19;100043.75;;;11.28;100.00
2339;BME280;1180;51.438;6.978;2023-04-07T04:02:45;100044.41;;;11.04;100.00
2339;BME280;1180;51.438;6.978;2023-04-07T04:05:10;100045.75;;;11.10;100.00
2339;BME280;1180;51.438;6.978;2023-04-07T04:07:36;100045.38;;;11.16;100.00
2339;BME280;1180;51.438;6.978;2023-04-07T04:10:03;100044.44;;;11.17;100.00
2339;BME280;1180;51.438;6.978;2023-04-07T04:12:29;100049.19;;;11.23;100.00
2339;BME280;1180;51.438;6.978;2023-04-07T04:14:55;100051.41;;;11.02;100.00
2339;BME280;1180;51.438;6.978;2023-04-07T04:17:21;100051.00;;;11.08;100.00
2339;BME280;1180;51.438;6.978;2023-04-07T04:19:46;100056.38;;;11.18;100.00
2339;BME280;1180;51.438;6.978;2023-04-07T04:22:12;100059.38;;;11.38;100.00
2339;BME280;1180;51.438;6.978;2023-04-07T04:24:37;100065.00;;;11.43;100.00
2339;BME280;1180;51.438;6.978;2023-04-07T04:27:03;100056.41;;;11.31;100.00
2339;BME280;1180;51.438;6.978;2023-04-07T04:29:29;100062.13;;;11.35;100.00
2339;BME280;1180;51.438;6.978;2023-04-07T04:31:55;100067.50;;;11.45;100.00
2339;BME280;1180;51.438;6.978;2023-04-07T04:34:21;100064.53;;;11.51;100.00
2339;BME280;1180;51.438;6.978;2023-04-07T04:36:46;100064.50;;;11.38;100.00
2339;BME280;1180;51.438;6.978;2023-04-07T04:39:13;100067.44;;;11.19;100.00
2339;BME280;1180;51.438;6.978;2023-04-07T04:41:39;100085.19;;;11.36;100.00
2339;BME280;1180;51.438;6.978;2023-04-07T04:44:05;100078.38;;;11.35;100.00
2339;BME280;1180;51.438;6.978;2023-04-07T04:46:31;100078.25;;;11.11;100.00
2339;BME280;1180;51.438;6.978;2023-04-07T04:48:56;100078.06;;;11.27;100.00
2339;BME280;1180;51.438;6.978;2023-04-07T04:51:22;100071.38;;;11.24;100.00
2339;BME280;1180;51.438;6.978;2023-04-07T04:53:48;100071.50;;;11.36;100.00
2339;BME280;1180;51.438;6.978;2023-04-07T04:56:14;100080.25;;;11.33;100.00
2339;BME280;1180;51.438;6.978;2023-04-07T04:58:40;100083.50;;;11.22;100.00
2339;BME280;1180;51.438;6.978;2023-04-07T05:01:11;100090.47;;;11.20;100.00
2339;BME280;1180;51.438;6.978;2023-04-07T05:03:36;100087.16;;;11.05;100.00
2339;BME280;1180;51.438;6.978;2023-04-07T05:06:02;100094.25;;;11.15;100.00
2339;BME280;1180;51.438;6.978;2023-04-07T05:08:28;100097.50;;;11.31;100.00
2339;BME280;1180;51.438;6.978;2023-04-07T05:10:53;100088.97;;;11.44;100.00
2339;BME280;1180;51.438;6.978;2023-04-07T05:13:20;100101.00;;;11.30;100.00
2339;BME280;1180;51.438;6.978;2023-04-07T05:15:46;100104.56;;;11.27;100.00
2339;BME280;1180;51.438;6.978;2023-04-07T05:18:11;100096.56;;;11.32;100.00
2339;BME280;1180;51.438;6.978;2023-04-07T05:20:37;100095.66;;;11.33;100.00
2339;BME280;1180;51.438;6.978;2023-04-07T05:23:03;100107.22;;;11.26;100.00
2339;BME280;1180;51.438;6.978;2023-04-07T05:25:29;100111.13;;;11.19;100.00
2339;BME280;1180;51.438;6.978;2023-04-07T05:27:57;100109.44;;;11.05;100.00
2339;BME280;1180;51.438;6.978;2023-04-07T05:30:24;100107.78;;;11.04;100.00
2339;BME280;1180;51.438;6.978;2023-04-07T05:32:49;100119.66;;;10.92;100.00
2339;BME280;1180;51.438;6.978;2023-04-07T05:35:15;100118.44;;;10.70;100.00
2339;BME280;1180;51.438;6.978;2023-04-07T05:37:41;100124.88;;;10.63;100.00
2339;BME280;1180;51.438;6.978;2023-04-07T05:40:07;100124.75;;;10.64;100.00
2339;BME280;1180;51.438;6.978;2023-04-07T05:42:33;100125.91;;;10.88;100.00
2339;BME280;1180;51.438;6.978;2023-04-07T05:44:58;100132.88;;;10.86;100.00
2339;BME280;1180;51.438;6.978;2023-04-07T05:47:24;100124.28;;;10.72;100.00
2339;BME280;1180;51.438;6.978;2023-04-07T05:49:49;100131.41;;;10.81;100.00
2339;BME280;1180;51.438;6.978;2023-04-07T05:52:15;100129.00;;;10.93;100.00
2339;BME280;1180;51.438;6.978;2023-04-07T05:54:40;100136.34;;;10.84;100.00
2339;BME280;1180;51.438;6.978;2023-04-07T05:57:06;100140.56;;;10.86;100.00
2339;BME280;1180;51.438;6.978;2023-04-07T05:59:32;100141.41;;;10.86;100.00
2339;BME280;1180;51.438;6.978;2023-04-07T06:01:58;100141.50;;;10.84;100.00
2339;BME280;1180;51.438;6.978;2023-04-07T06:04:24;100141.09;;;10.91;100.00
2339;BME280;1180;51.438;6.978;2023-04-07T06:06:49;100151.28;;;10.92;100.00
2339;BME280;1180;51.438;6.978;2023-04-07T06:09:17;100152.03;;;10.94;100.00
2339;BME280;1180;51.438;6.978;2023-04-07T06:11:42;100153.94;;;10.91;100.00
2339;BME280;1180;51.438;6.978;2023-04-07T06:14:08;100152.16;;;11.06;100.00
2339;BME280;1180;51.438;6.978;2023-04-07T06:16:33;100153.78;;;10.79;100.00
2339;BME280;1180;51.438;6.978;2023-04-07T06:19:00;100154.19;;;10.73;100.00
2339;BME280;1180;51.438;6.978;2023-04-07T06:21:25;100161.47;;;10.94;100.00
2339;BME280;1180;51.438;6.978;2023-04-07T06:23:51;100163.75;;;10.98;100.00
2339;BME280;1180;51.438;6.978;2023-04-07T06:26:16;100161.31;;;11.10;100.00
2339;BME280;1180;51.438;6.978;2023-04-07T06:28:42;100160.13;;;11.16;100.00
2339;BME280;1180;51.438;6.978;2023-04-07T06:31:07;100162.28;;;11.22;100.00
2339;BME280;1180;51.438;6.978;2023-04-07T06:33:33;100159.53;;;11.25;100.00
2339;BME280;1180;51.438;6.978;2023-04-07T06:35:58;100157.94;;;11.09;100.00
2339;BME280;1180;51.438;6.978;2023-04-07T06:38:24;100155.50;;;11.21;100.00
2339;BME280;1180;51.438;6.978;2023-04-07T06:40:50;100168.13;;;11.11;100.00
2339;BME280;1180;51.438;6.978;2023-04-07T06:43:16;100167.63;;;11.19;100.00
2339;BME280;1180;51.438;6.978;2023-04-07T06:45:41;100164.84;;;11.22;100.00
2339;BME280;1180;51.438;6.978;2023-04-07T06:48:09;100171.56;;;10.97;100.00
2339;BME280;1180;51.438;6.978;2023-04-07T06:50:35;100174.47;;;10.91;100.00
2339;BME280;1180;51.438;6.978;2023-04-07T06:53:02;100177.34;;;10.86;100.00
2339;BME280;1180;51.438;6.978;2023-04-07T06:55:27;100178.53;;;10.80;100.00
2339;BME280;1180;51.438;6.978;2023-04-07T06:57:52;100183.22;;;10.88;100.00
2339;BME280;1180;51.438;6.978;2023-04-07T07:00:18;100181.88;;;10.68;100.00
2339;BME280;1180;51.438;6.978;2023-04-07T07:02:46;100183.13;;;10.75;100.00
2339;BME280;1180;51.438;6.978;2023-04-07T07:05:11;100182.75;;;10.81;100.00
2339;BME280;1180;51.438;6.978;2023-04-07T07:07:36;100186.16;;;10.67;100.00
2339;BME280;1180;51.438;6.978;2023-04-07T07:10:02;100187.81;;;10.68;100.00
2339;BME280;1180;51.438;6.978;2023-04-07T07:12:27;100184.03;;;10.89;100.00
2339;BME280;1180;51.438;6.978;2023-04-07T07:14:53;100189.47;;;10.69;100.00
2339;BME280;1180;51.438;6.978;2023-04-07T07:17:18;100190.00;;;10.75;100.00
2339;BME280;1180;51.438;6.978;2023-04-07T07:19:44;100191.09;;;10.71;100.00
2339;BME280;1180;51.438;6.978;2023-04-07T07:22:10;100192.50;;;10.62;100.00
2339;BME280;1180;51.438;6.978;2023-04-07T07:24:35;100198.63;;;10.88;100.00
2339;BME280;1180;51.438;6.978;2023-04-07T07:27:01;100201.53;;;10.96;100.00
2339;BME280;1180;51.438;6.978;2023-04-07T07:29:27;100201.75;;;11.21;100.00
2339;BME280;1180;51.438;6.978;2023-04-07T07:31:53;100205.97;;;11.49;100.00
2339;BME280;1180;51.438;6.978;2023-04-07T07:34:18;100207.66;;;11.63;100.00
2339;BME280;1180;51.438;6.978;2023-04-07T07:36:44;100213.03;;;11.46;100.00
2339;BME280;1180;51.438;6.978;2023-04-07T07:39:09;100221.22;;;11.38;100.00
2339;BME280;1180;51.438;6.978;2023-04-07T07:41:35;100214.88;;;11.44;100.00
2339;BME280;1180;51.438;6.978;2023-04-07T07:44:00;100218.66;;;11.65;100.00
2339;BME280;1180;51.438;6.978;2023-04-07T07:46:26;100217.22;;;11.61;100.00
2339;BME280;1180;51.438;6.978;2023-04-07T07:48:51;100218.59;;;11.80;100.00
2339;BME280;1180;51.438;6.978;2023-04-07T07:51:17;100221.13;;;11.67;100.00
2339;BME280;1180;51.438;6.978;2023-04-07T07:53:44;100216.56;;;11.58;100.00
2339;BME280;1180;51.438;6.978;2023-04-07T07:56:10;100227.09;;;11.67;100.00
2339;BME280;1180;51.438;6.978;2023-04-07T07:58:36;100219.78;;;11.74;100.00
2339;BME280;1180;51.438;6.978;2023-04-07T08:01:02;100230.06;;;11.74;100.00
2339;BME280;1180;51.438;6.978;2023-04-07T08:03:27;100229.88;;;11.64;100.00
2339;BME280;1180;51.438;6.978;2023-04-07T08:05:53;100239.19;;;11.52;100.00
2339;BME280;1180;51.438;6.978;2023-04-07T08:08:19;100237.59;;;11.64;100.00
2339;BME280;1180;51.438;6.978;2023-04-07T08:10:44;100246.78;;;11.54;100.00
2339;BME280;1180;51.438;6.978;2023-04-07T08:13:10;100251.88;;;11.68;100.00
2339;BME280;1180;51.438;6.978;2023-04-07T08:15:35;100246.34;;;11.75;100.00
2339;BME280;1180;51.438;6.978;2023-04-07T08:18:01;100256.25;;;11.53;100.00
2339;BME280;1180;51.438;6.978;2023-04-07T08:20:29;100257.06;;;11.54;100.00
2339;BME280;1180;51.438;6.978;2023-04-07T08:22:55;100258.75;;;11.68;100.00
2339;BME280;1180;51.438;6.978;2023-04-07T08:25:22;100257.47;;;11.88;100.00
2339;BME280;1180;51.438;6.978;2023-04-07T08:27:48;100254.88;;;11.48;100.00
2339;BME280;1180;51.438;6.978;2023-04-07T08:30:14;100263.13;;;11.53;100.00
2339;BME280;1180;51.438;6.978;2023-04-07T08:32:43;100267.28;;;11.41;100.00
2339;BME280;1180;51.438;6.978;2023-04-07T08:35:10;100266.53;;;11.53;100.00
2339;BME280;1180;51.438;6.978;2023-04-07T08:37:37;100266.19;;;11.73;100.00
2339;BME280;1180;51.438;6.978;2023-04-07T08:40:03;100266.91;;;11.47;100.00
2339;BME280;1180;51.438;6.978;2023-04-07T08:42:30;100265.81;;;11.51;100.00
2339;BME280;1180;51.438;6.978;2023-04-07T08:45:04;100267.50;;;11.65;100.00
2339;BME280;1180;51.438;6.978;2023-04-07T08:47:31;100266.72;;;11.78;100.00
2339;BME280;1180;51.438;6.978;2023-04-07T08:50:07;100269.47;;;12.02;100.00
2339;BME280;1180;51.438;6.978;2023-04-07T08:52:38;100269.91;;;12.09;100.00
2339;BME280;1180;51.438;6.978;2023-04-07T08:55:04;100268.13;;;12.09;100.00
2339;BME280;1180;51.438;6.978;2023-04-07T08:57:32;100273.13;;;11.98;100.00
2339;BME280;1180;51.438;6.978;2023-04-07T09:00:00;100276.44;;;12.00;100.00
2339;BME280;1180;51.438;6.978;2023-04-07T09:02:33;100279.88;;;12.01;100.00
2339;BME280;1180;51.438;6.978;2023-04-07T09:05:02;100281.53;;;11.87;100.00
2339;BME280;1180;51.438;6.978;2023-04-07T09:07:30;100288.53;;;11.85;100.00
2339;BME280;1180;51.438;6.978;2023-04-07T09:09:57;100283.81;;;11.92;100.00
2339;BME280;1180;51.438;6.978;2023-04-07T09:12:22;100289.06;;;11.90;100.00
2339;BME280;1180;51.438;6.978;2023-04-07T09:14:48;100290.91;;;11.88;100.00
2339;BME280;1180;51.438;6.978;2023-04-07T09:17:13;100299.13;;;11.80;100.00
2339;BME280;1180;51.438;6.978;2023-04-07T09:19:39;100296.31;;;11.70;100.00
2339;BME280;1180;51.438;6.978;2023-04-07T09:22:05;100300.00;;;11.66;100.00
2339;BME280;1180;51.438;6.978;2023-04-07T09:24:32;100296.97;;;11.87;100.00
2339;BME280;1180;51.438;6.978;2023-04-07T09:27:15;100294.44;;;12.00;100.00
2339;BME280;1180;51.438;6.978;2023-04-07T09:29:45;100296.19;;;11.99;100.00
2339;BME280;1180;51.438;6.978;2023-04-07T09:32:11;100292.78;;;11.99;100.00
2339;BME280;1180;51.438;6.978;2023-04-07T09:34:39;100305.41;;;11.89;100.00
2339;BME280;1180;51.438;6.978;2023-04-07T09:37:06;100299.63;;;11.58;100.00
2339;BME280;1180;51.438;6.978;2023-04-07T09:39:50;100298.69;;;11.32;100.00
2339;BME280;1180;51.438;6.978;2023-04-07T09:42:15;100288.88;;;11.38;100.00
2339;BME280;1180;51.438;6.978;2023-04-07T09:44:43;100300.53;;;11.72;100.00
2339;BME280;1180;51.438;6.978;2023-04-07T09:47:08;100303.28;;;11.96;100.00
2339;BME280;1180;51.438;6.978;2023-04-07T09:49:51;100301.69;;;12.08;100.00
2339;BME280;1180;51.438;6.978;2023-04-07T09:52:25;100298.03;;;11.97;100.00
2339;BME280;1180;51.438;6.978;2023-04-07T09:55:08;100312.63;;;11.97;100.00
2339;BME280;1180;51.438;6.978;2023-04-07T09:57:36;100314.09;;;11.74;100.00
2339;BME280;1180;51.438;6.978;2023-04-07T10:00:04;100315.13;;;11.71;100.00
2339;BME280;1180;51.438;6.978;2023-04-07T10:02:30;100316.81;;;11.58;100.00
2339;BME280;1180;51.438;6.978;2023-04-07T10:04:58;100318.84;;;11.80;100.00
2339;BME280;1180;51.438;6.978;2023-04-07T10:07:24;100320.78;;;11.76;100.00
2339;BME280;1180;51.438;6.978;2023-04-07T10:09:51;100312.34;;;11.47;100.00
2339;BME280;1180;51.438;6.978;2023-04-07T10:12:17;100311.94;;;11.67;100.00
2339;BME280;1180;51.438;6.978;2023-04-07T10:14:45;100319.38;;;11.85;100.00
2339;BME280;1180;51.438;6.978;2023-04-07T10:17:12;100313.44;;;11.84;100.00
2339;BME280;1180;51.438;6.978;2023-04-07T10:19:45;100324.88;;;11.93;100.00
2339;BME280;1180;51.438;6.978;2023-04-07T10:22:13;100322.41;;;11.92;100.00
2339;BME280;1180;51.438;6.978;2023-04-07T10:25:07;100330.91;;;11.92;100.00
2339;BME280;1180;51.438;6.978;2023-04-07T10:27:48;100330.72;;;11.68;100.00
2339;BME280;1180;51.438;6.978;2023-04-07T10:30:24;100329.28;;;11.64;100.00
2339;BME280;1180;51.438;6.978;2023-04-07T10:32:51;100328.69;;;11.73;100.00
2339;BME280;1180;51.438;6.978;2023-04-07T10:35:18;100331.13;;;11.89;100.00
2339;BME280;1180;51.438;6.978;2023-04-07T10:40:31;100338.16;;;12.15;100.00
2339;BME280;1180;51.438;6.978;2023-04-07T10:42:57;100332.47;;;12.22;100.00
2339;BME280;1180;51.438;6.978;2023-04-07T10:48:17;100346.75;;;12.01;100.00
2339;BME280;1180;51.438;6.978;2023-04-07T10:53:28;100340.25;;;11.80;100.00
2339;BME280;1180;51.438;6.978;2023-04-07T10:55:54;100338.31;;;11.84;100.00
2339;BME280;1180;51.438;6.978;2023-04-07T10:58:35;100350.16;;;11.87;100.00
2339;BME280;1180;51.438;6.978;2023-04-07T11:03:32;100349.88;;;12.19;100.00
2339;BME280;1180;51.438;6.978;2023-04-07T11:06:06;100349.38;;;12.26;100.00
2339;BME280;1180;51.438;6.978;2023-04-07T11:08:35;100350.94;;;12.42;100.00
2339;BME280;1180;51.438;6.978;2023-04-07T11:11:03;100342.59;;;12.38;100.00
2339;BME280;1180;51.438;6.978;2023-04-07T11:13:46;100344.56;;;12.35;100.00
2339;BME280;1180;51.438;6.978;2023-04-07T11:16:13;100351.06;;;12.53;100.00
2339;BME280;1180;51.438;6.978;2023-04-07T11:18:40;100348.69;;;12.50;100.00
2339;BME280;1180;51.438;6.978;2023-04-07T11:21:06;100350.91;;;12.29;100.00
2339;BME280;1180;51.438;6.978;2023-04-07T11:23:40;100357.19;;;11.97;100.00
2339;BME280;1180;51.438;6.978;2023-04-07T11:26:07;100351.94;;;11.72;100.00
2339;BME280;1180;51.438;6.978;2023-04-07T11:28:34;100359.00;;;11.82;100.00
2339;BME280;1180;51.438;6.978;2023-04-07T11:31:02;100355.91;;;11.63;100.00
2339;BME280;1180;51.438;6.978;2023-04-07T11:33:30;100355.75;;;11.51;100.00
2339;BME280;1180;51.438;6.978;2023-04-07T11:36:01;100361.44;;;11.84;100.00
2339;BME280;1180;51.438;6.978;2023-04-07T11:38:37;100369.22;;;12.11;100.00
2339;BME280;1180;51.438;6.978;2023-04-07T11:41:11;100369.13;;;12.26;100.00
2339;BME280;1180;51.438;6.978;2023-04-07T11:43:40;100368.97;;;12.42;100.00
2339;BME280;1180;51.438;6.978;2023-04-07T11:46:15;100368.97;;;12.42;100.00
2339;BME280;1180;51.438;6.978;2023-04-07T11:48:44;100374.56;;;12.21;100.00
2339;BME280;1180;51.438;6.978;2023-04-07T11:51:18;100379.94;;;12.31;100.00
2339;BME280;1180;51.438;6.978;2023-04-07T11:53:44;100378.78;;;12.22;100.00
2339;BME280;1180;51.438;6.978;2023-04-07T11:56:14;100378.06;;;12.20;100.00
2339;BME280;1180;51.438;6.978;2023-04-07T11:58:50;100377.31;;;12.46;100.00
2339;BME280;1180;51.438;6.978;2023-04-07T12:01:16;100380.44;;;12.64;100.00
2339;BME280;1180;51.438;6.978;2023-04-07T12:03:57;100385.91;;;12.72;100.00
2339;BME280;1180;51.438;6.978;2023-04-07T12:06:27;100392.56;;;12.75;100.00
2339;BME280;1180;51.438;6.978;2023-04-07T12:08:54;100391.84;;;12.47;100.00
2339;BME280;1180;51.438;6.978;2023-04-07T12:11:20;100395.03;;;12.50;100.00
2339;BME280;1180;51.438;6.978;2023-04-07T12:13:46;100395.47;;;12.70;100.00
2339;BME280;1180;51.438;6.978;2023-04-07T12:16:11;100398.84;;;12.57;100.00
2339;BME280;1180;51.438;6.978;2023-04-07T12:18:37;100403.66;;;12.49;100.00
2339;BME280;1180;51.438;6.978;2023-04-07T12:21:03;100397.00;;;12.47;100.00
2339;BME280;1180;51.438;6.978;2023-04-07T12:23:29;100399.78;;;12.56;100.00
2339;BME280;1180;51.438;6.978;2023-04-07T12:25:55;100399.69;;;12.71;100.00
2339;BME280;1180;51.438;6.978;2023-04-07T12:28:20;100407.28;;;12.47;100.00
2339;BME280;1180;51.438;6.978;2023-04-07T12:30:46;100407.69;;;12.53;100.00
2339;BME280;1180;51.438;6.978;2023-04-07T12:33:12;100406.06;;;12.65;100.00
2339;BME280;1180;51.438;6.978;2023-04-07T12:35:37;100408.88;;;12.88;100.00
2339;BME280;1180;51.438;6.978;2023-04-07T12:38:03;100406.00;;;12.93;100.00
2339;BME280;1180;51.438;6.978;2023-04-07T12:40:30;100408.78;;;12.77;100.00
2339;BME280;1180;51.438;6.978;2023-04-07T12:42:56;100413.13;;;12.89;100.00
2339;BME280;1180;51.438;6.978;2023-04-07T12:45:24;100407.84;;;12.91;100.00
2339;BME280;1180;51.438;6.978;2023-04-07T12:47:50;100419.63;;;12.95;100.00
2339;BME280;1180;51.438;6.978;2023-04-07T12:50:15;100416.91;;;12.83;100.00
2339;BME280;1180;51.438;6.978;2023-04-07T12:52:41;100418.03;;;12.79;100.00
2339;BME280;1180;51.438;6.978;2023-04-07T12:55:07;100425.75;;;12.79;100.00
2339;BME280;1180;51.438;6.978;2023-04-07T12:57:33;100425.88;;;13.04;100.00
2339;BME280;1180;51.438;6.978;2023-04-07T12:59:59;100427.22;;;12.96;100.00
2339;BME280;1180;51.438;6.978;2023-04-07T13:02:24;100424.16;;;13.04;100.00
2339;BME280;1180;51.438;6.978;2023-04-07T13:04:50;100430.53;;;13.11;100.00
2339;BME280;1180;51.438;6.978;2023-04-07T13:07:15;100426.00;;;13.02;100.00
2339;BME280;1180;51.438;6.978;2023-04-07T13:09:41;100429.38;;;13.03;100.00
2339;BME280;1180;51.438;6.978;2023-04-07T13:12:10;100435.69;;;13.11;100.00